PWSweather.com
Personal Weather Stations
Station Observations
WISCHPK61
Green Bay Schmitt Park, Green Bay, WI 54311

Green Bay Schmitt ParkGreen Bay, WI 54311

Lat: 44.514277, Lon: -87.935067

Elevation: 735

Station Type: Acu Rite Pro Weather Center model 02032C

http://greenbayweathercam.com

High Low Average
Temperature 31.1°F-0.5°C 20.8°F-6.2°C 26.3°F-3.2°C
Dew Point 30.9°F-0.6°C 18.4°F-7.6°C 24.8°F-4.0°C
Winds 2.3 mph 3.7 kmh Calm Calm Calm WSWCalm WSW
Wind Gusts 2.3 mph3.7 kmh -- --
Humidity 99% 74% 94%
Pressure 29.61 in1002.7 mb 29.45 in997.3 mb -
Precipitation 0.00 in0.0 mm - -
Hour Temp Dew Point Humidity Winds Wind Gusts Pressure Precip Precip Rate Daily Precip Total
12:00 AM 22.8°F-5.1°C 22.6°F-5.2°C 99% Calm Calm -- 29.61 in1002.7 mb - 0.00 in0.0 mm 0.00 in0.0 mm
01:00 AM 22.8°F-5.1°C 22.6°F-5.2°C 99% Calm Calm -- 29.60 in1002.4 mb - 0.00 in0.0 mm 0.00 in0.0 mm
02:00 AM 21.9°F-5.6°C 21.7°F-5.7°C 99% Calm Calm -- 29.61 in1002.7 mb - 0.00 in0.0 mm 0.00 in0.0 mm
03:00 AM 20.8°F-6.2°C 20.6°F-6.3°C 99% Calm Calm -- 29.60 in1002.4 mb - 0.00 in0.0 mm 0.00 in0.0 mm
04:00 AM 20.8°F-6.2°C 20.6°F-6.3°C 99% Calm Calm -- 29.59 in1002.0 mb - 0.00 in0.0 mm 0.00 in0.0 mm
05:00 AM 22.5°F-5.3°C 18.4°F-7.6°C 84% Calm Calm -- 29.57 in1001.4 mb - 0.00 in0.0 mm 0.00 in0.0 mm
06:00 AM 23.5°F-4.7°C 20.7°F-6.3°C 89% Calm Calm -- 29.56 in1001.0 mb - 0.00 in0.0 mm 0.00 in0.0 mm
07:00 AM 23.9°F-4.5°C 23.7°F-4.6°C 99% Calm Calm 1.2 mph1.9 kmh 29.56 in1001.0 mb - 0.00 in0.0 mm 0.00 in0.0 mm
08:00 AM 24.3°F-4.3°C 21.0°F-6.1°C 87% Calm Calm -- 29.55 in1000.7 mb - 0.00 in0.0 mm 0.00 in0.0 mm
09:00 AM 26.1°F-3.3°C 25.9°F-3.4°C 99% Calm Calm -- 29.55 in1000.7 mb - 0.00 in0.0 mm 0.00 in0.0 mm
10:00 AM 27.9°F-2.3°C 27.7°F-2.4°C 99% 1.2 mph SSW1.9 kmh SSW -- 29.55 in1000.7 mb - 0.00 in0.0 mm 0.00 in0.0 mm
11:00 AM 31.1°F-0.5°C 30.8°F-0.7°C 99% Calm Calm -- 29.54 in1000.3 mb - 0.00 in0.0 mm 0.00 in0.0 mm
12:00 PM 31.1°F-0.5°C 30.9°F-0.6°C 99% 2.3 mph NW3.7 kmh NW 2.3 mph3.7 kmh 29.50 in999.0 mb - 0.00 in0.0 mm 0.00 in0.0 mm
01:00 PM 29.7°F-1.3°C 29.5°F-1.4°C 99% 1.2 mph NNW1.9 kmh NNW 1.2 mph1.9 kmh 29.49 in998.6 mb - 0.00 in0.0 mm 0.00 in0.0 mm
02:00 PM 29.1°F-1.6°C 23.1°F-4.9°C 78% Calm Calm -- 29.47 in998.0 mb - 0.00 in0.0 mm 0.00 in0.0 mm
03:00 PM 29.5°F-1.4°C 29.3°F-1.5°C 99% Calm Calm 1.2 mph1.9 kmh 29.47 in998.0 mb - 0.00 in0.0 mm 0.00 in0.0 mm
04:00 PM 28.8°F-1.8°C 28.6°F-1.9°C 99% Calm Calm 1.2 mph1.9 kmh 29.47 in998.0 mb - 0.00 in0.0 mm 0.00 in0.0 mm
05:00 PM 28.0°F-2.2°C 20.8°F-6.2°C 74% Calm Calm -- 29.47 in998.0 mb - 0.00 in0.0 mm 0.00 in0.0 mm
06:00 PM 27.9°F-2.3°C 22.5°F-5.3°C 80% Calm Calm -- 29.47 in998.0 mb - 0.00 in0.0 mm 0.00 in0.0 mm
07:00 PM 27.9°F-2.3°C 27.7°F-2.4°C 99% Calm Calm -- 29.47 in998.0 mb - 0.00 in0.0 mm 0.00 in0.0 mm
08:00 PM 27.9°F-2.3°C 27.7°F-2.4°C 99% Calm Calm 1.2 mph1.9 kmh 29.46 in997.6 mb - 0.00 in0.0 mm 0.00 in0.0 mm
09:00 PM 27.9°F-2.3°C 24.3°F-4.3°C 86% Calm Calm -- 29.46 in997.6 mb - 0.00 in0.0 mm 0.00 in0.0 mm
10:00 PM 27.9°F-2.3°C 27.2°F-2.7°C 97% 1.2 mph W1.9 kmh W -- 29.46 in997.6 mb - 0.00 in0.0 mm 0.00 in0.0 mm
11:00 PM 27.9°F-2.3°C 26.9°F-2.8°C 96% Calm Calm -- 29.45 in997.3 mb - 0.00 in0.0 mm 0.00 in0.0 mm